sensor_id;sensor_type;location;lat;lon;timestamp;temperature;humidity
18297;DHT22;18066;52.106;5.534;2024-03-02T00:06:45;9.50;99.90
18297;DHT22;18066;52.106;5.534;2024-03-02T00:09:42;9.80;99.90
18297;DHT22;18066;52.106;5.534;2024-03-02T00:15:22;9.70;99.90
18297;DHT22;18066;52.106;5.534;2024-03-02T00:15:52;9.70;99.90
18297;DHT22;18066;52.106;5.534;2024-03-02T00:18:36;9.70;99.90
18297;DHT22;18066;52.106;5.534;2024-03-02T00:21:56;9.80;99.90
18297;DHT22;18066;52.106;5.534;2024-03-02T00:28:22;9.70;99.90
18297;DHT22;18066;52.106;5.534;2024-03-02T00:31:33;9.80;99.90
18297;DHT22;18066;52.106;5.534;2024-03-02T00:34:44;9.80;99.90
18297;DHT22;18066;52.106;5.534;2024-03-02T00:37:32;9.90;99.90
18297;DHT22;18066;52.106;5.534;2024-03-02T00:47:08;9.60;99.90
18297;DHT22;18066;52.106;5.534;2024-03-02T00:49:58;9.50;99.90
18297;DHT22;18066;52.106;5.534;2024-03-02T00:54:31;9.40;99.90
18297;DHT22;18066;52.106;5.534;2024-03-02T00:56:26;9.50;99.90
18297;DHT22;18066;52.106;5.534;2024-03-02T01:05:51;9.40;99.90
18297;DHT22;18066;52.106;5.534;2024-03-02T08:58:39;8.60;99.90
18297;DHT22;18066;52.106;5.534;2024-03-02T09:01:40;8.90;99.90
18297;DHT22;18066;52.106;5.534;2024-03-02T09:04:53;9.30;99.90
18297;DHT22;18066;52.106;5.534;2024-03-02T09:07:52;8.90;99.90
18297;DHT22;18066;52.106;5.534;2024-03-02T09:10:59;9.30;99.90
18297;DHT22;18066;52.106;5.534;2024-03-02T09:13:36;9.00;99.90
18297;DHT22;18066;52.106;5.534;2024-03-02T09:16:43;9.40;99.90
18297;DHT22;18066;52.106;5.534;2024-03-02T09:20:11;9.30;99.90
18297;DHT22;18066;52.106;5.534;2024-03-02T12:01:42;12.20;99.90
18297;DHT22;18066;52.106;5.534;2024-03-02T12:07:47;12.00;99.90
18297;DHT22;18066;52.106;5.534;2024-03-02T12:31:06;12.50;99.90
18297;DHT22;18066;52.106;5.534;2024-03-02T12:34:59;12.70;99.90
18297;DHT22;18066;52.106;5.534;2024-03-02T12:45:08;12.50;99.90
18297;DHT22;18066;52.106;5.534;2024-03-02T12:47:43;12.50;99.90
18297;DHT22;18066;52.106;5.534;2024-03-02T12:57:10;12.60;99.90
18297;DHT22;18066;52.106;5.534;2024-03-02T15:06:56;15.00;99.90
18297;DHT22;18066;52.106;5.534;2024-03-02T15:12:35;15.10;99.90
18297;DHT22;18066;52.106;5.534;2024-03-02T15:13:44;15.30;99.90
18297;DHT22;18066;52.106;5.534;2024-03-02T15:32:59;14.50;99.90
18297;DHT22;18066;52.106;5.534;2024-03-02T15:40:20;14.20;99.90
18297;DHT22;18066;52.106;5.534;2024-03-02T15:47:12;14.50;99.90
18297;DHT22;18066;52.106;5.534;2024-03-02T15:53:31;14.40;99.90
18297;DHT22;18066;52.106;5.534;2024-03-02T16:03:00;13.70;99.90
18297;DHT22;18066;52.106;5.534;2024-03-02T16:05:52;13.50;99.90
18297;DHT22;18066;52.106;5.534;2024-03-02T16:08:19;13.60;99.90
18297;DHT22;18066;52.106;5.534;2024-03-02T16:10:46;13.40;99.90
18297;DHT22;18066;52.106;5.534;2024-03-02T16:13:13;13.00;99.90
18297;DHT22;18066;52.106;5.534;2024-03-02T16:15:40;13.40;99.90
18297;DHT22;18066;52.106;5.534;2024-03-02T16:18:07;13.20;99.90
18297;DHT22;18066;52.106;5.534;2024-03-02T16:20:35;13.30;99.90
18297;DHT22;18066;52.106;5.534;2024-03-02T16:23:06;13.10;99.90
18297;DHT22;18066;52.106;5.534;2024-03-02T16:25:35;13.00;99.90
18297;DHT22;18066;52.106;5.534;2024-03-02T16:28:08;13.00;99.90
18297;DHT22;18066;52.106;5.534;2024-03-02T16:30:36;12.70;99.90
18297;DHT22;18066;52.106;5.534;2024-03-02T16:33:03;12.70;99.90
18297;DHT22;18066;52.106;5.534;2024-03-02T16:35:32;12.70;99.90
18297;DHT22;18066;52.106;5.534;2024-03-02T16:38:01;12.60;99.90
18297;DHT22;18066;52.106;5.534;2024-03-02T16:40:29;12.70;99.90
18297;DHT22;18066;52.106;5.534;2024-03-02T16:43:00;12.50;99.90
18297;DHT22;18066;52.106;5.534;2024-03-02T16:45:27;12.60;99.90
18297;DHT22;18066;52.106;5.534;2024-03-02T16:47:55;12.50;99.90
18297;DHT22;18066;52.106;5.534;2024-03-02T16:50:22;12.50;99.90
18297;DHT22;18066;52.106;5.534;2024-03-02T16:52:53;12.40;99.90
18297;DHT22;18066;52.106;5.534;2024-03-02T16:55:22;12.30;99.90
18297;DHT22;18066;52.106;5.534;2024-03-02T16:57:51;12.30;99.90
18297;DHT22;18066;52.106;5.534;2024-03-02T17:00:18;12.30;99.90
18297;DHT22;18066;52.106;5.534;2024-03-02T17:02:45;12.20;99.90
18297;DHT22;18066;52.106;5.534;2024-03-02T17:05:12;12.10;99.90
18297;DHT22;18066;52.106;5.534;2024-03-02T17:07:39;12.00;99.90
18297;DHT22;18066;52.106;5.534;2024-03-02T17:10:07;12.00;99.90
18297;DHT22;18066;52.106;5.534;2024-03-02T17:12:34;11.90;99.90
18297;DHT22;18066;52.106;5.534;2024-03-02T17:15:02;11.90;99.90
18297;DHT22;18066;52.106;5.534;2024-03-02T17:17:30;11.80;99.90
18297;DHT22;18066;52.106;5.534;2024-03-02T17:19:58;11.70;99.90
18297;DHT22;18066;52.106;5.534;2024-03-02T17:22:27;11.60;99.90
18297;DHT22;18066;52.106;5.534;2024-03-02T17:24:54;11.50;99.90
18297;DHT22;18066;52.106;5.534;2024-03-02T17:27:21;11.50;99.90
18297;DHT22;18066;52.106;5.534;2024-03-02T17:29:48;11.40;99.90
18297;DHT22;18066;52.106;5.534;2024-03-02T17:32:16;11.40;99.90
18297;DHT22;18066;52.106;5.534;2024-03-02T17:34:43;11.30;99.90
18297;DHT22;18066;52.106;5.534;2024-03-02T17:37:11;11.40;99.90
18297;DHT22;18066;52.106;5.534;2024-03-02T17:39:38;11.30;99.90
18297;DHT22;18066;52.106;5.534;2024-03-02T17:42:05;11.30;99.90
18297;DHT22;18066;52.106;5.534;2024-03-02T17:44:32;11.30;99.90
18297;DHT22;18066;52.106;5.534;2024-03-02T17:46:59;11.40;99.90
18297;DHT22;18066;52.106;5.534;2024-03-02T17:49:28;11.30;99.90
18297;DHT22;18066;52.106;5.534;2024-03-02T17:51:57;11.40;99.90
18297;DHT22;18066;52.106;5.534;2024-03-02T17:54:24;11.40;99.90
18297;DHT22;18066;52.106;5.534;2024-03-02T17:56:54;11.50;99.90
18297;DHT22;18066;52.106;5.534;2024-03-02T17:59:21;11.50;99.90
18297;DHT22;18066;52.106;5.534;2024-03-02T18:01:48;11.60;99.90
18297;DHT22;18066;52.106;5.534;2024-03-02T18:04:15;11.60;99.90
18297;DHT22;18066;52.106;5.534;2024-03-02T18:06:43;11.60;99.90
18297;DHT22;18066;52.106;5.534;2024-03-02T18:09:11;11.70;99.90
18297;DHT22;18066;52.106;5.534;2024-03-02T18:11:38;11.70;99.90
18297;DHT22;18066;52.106;5.534;2024-03-02T18:14:05;11.70;99.90
18297;DHT22;18066;52.106;5.534;2024-03-02T18:16:32;11.70;99.90
18297;DHT22;18066;52.106;5.534;2024-03-02T18:19:01;11.70;99.90
18297;DHT22;18066;52.106;5.534;2024-03-02T18:21:31;11.80;99.90
18297;DHT22;18066;52.106;5.534;2024-03-02T18:24:16;11.80;99.90
18297;DHT22;18066;52.106;5.534;2024-03-02T18:27:03;11.90;99.90
18297;DHT22;18066;52.106;5.534;2024-03-02T18:31:56;11.80;99.90
18297;DHT22;18066;52.106;5.534;2024-03-02T18:44:06;11.80;99.90
